sensor_id;sensor_type;location;lat;lon;timestamp;P1;durP1;ratioP1;P2;durP2;ratioP2
75012;SDS011;63567;49.956;20.130;2024-01-06T00:01:13;28.10;;;13.73;;
75012;SDS011;63567;49.956;20.130;2024-01-06T00:03:40;28.15;;;12.77;;
75012;SDS011;63567;49.956;20.130;2024-01-06T00:06:05;29.88;;;14.18;;
75012;SDS011;63567;49.956;20.130;2024-01-06T00:08:31;26.23;;;12.68;;
75012;SDS011;63567;49.956;20.130;2024-01-06T00:10:56;25.80;;;12.40;;
75012;SDS011;63567;49.956;20.130;2024-01-06T00:13:21;27.77;;;13.37;;
75012;SDS011;63567;49.956;20.130;2024-01-06T00:15:46;26.70;;;13.00;;
75012;SDS011;63567;49.956;20.130;2024-01-06T00:18:12;21.13;;;10.57;;
75012;SDS011;63567;49.956;20.130;2024-01-06T00:20:37;21.30;;;9.63;;
75012;SDS011;63567;49.956;20.130;2024-01-06T00:23:03;21.60;;;10.30;;
75012;SDS011;63567;49.956;20.130;2024-01-06T00:25:28;21.17;;;10.73;;
75012;SDS011;63567;49.956;20.130;2024-01-06T00:27:53;21.60;;;11.10;;
75012;SDS011;63567;49.956;20.130;2024-01-06T00:30:18;18.87;;;9.77;;
75012;SDS011;63567;49.956;20.130;2024-01-06T00:32:44;22.97;;;10.50;;
75012;SDS011;63567;49.956;20.130;2024-01-06T00:35:09;22.10;;;10.73;;
75012;SDS011;63567;49.956;20.130;2024-01-06T00:37:34;22.37;;;9.60;;
75012;SDS011;63567;49.956;20.130;2024-01-06T00:39:59;23.30;;;10.40;;
75012;SDS011;63567;49.956;20.130;2024-01-06T00:42:25;20.37;;;10.93;;
75012;SDS011;63567;49.956;20.130;2024-01-06T00:44:50;23.80;;;12.20;;
75012;SDS011;63567;49.956;20.130;2024-01-06T00:47:15;22.47;;;10.77;;
75012;SDS011;63567;49.956;20.130;2024-01-06T00:49:40;22.43;;;10.27;;
75012;SDS011;63567;49.956;20.130;2024-01-06T00:52:06;21.20;;;8.93;;
75012;SDS011;63567;49.956;20.130;2024-01-06T00:54:31;18.03;;;9.17;;
75012;SDS011;63567;49.956;20.130;2024-01-06T00:56:56;16.38;;;8.25;;
75012;SDS011;63567;49.956;20.130;2024-01-06T00:59:22;16.60;;;7.30;;
75012;SDS011;63567;49.956;20.130;2024-01-06T01:01:47;16.23;;;7.83;;
75012;SDS011;63567;49.956;20.130;2024-01-06T01:04:12;14.77;;;7.40;;
75012;SDS011;63567;49.956;20.130;2024-01-06T01:06:37;13.10;;;7.27;;
75012;SDS011;63567;49.956;20.130;2024-01-06T01:09:03;11.20;;;6.67;;
75012;SDS011;63567;49.956;20.130;2024-01-06T01:11:29;12.25;;;6.75;;
75012;SDS011;63567;49.956;20.130;2024-01-06T01:13:54;14.27;;;7.30;;
75012;SDS011;63567;49.956;20.130;2024-01-06T01:16:20;15.53;;;6.97;;
75012;SDS011;63567;49.956;20.130;2024-01-06T01:18:45;13.10;;;6.60;;
75012;SDS011;63567;49.956;20.130;2024-01-06T01:21:10;16.23;;;7.73;;
75012;SDS011;63567;49.956;20.130;2024-01-06T01:23:35;15.53;;;8.73;;
75012;SDS011;63567;49.956;20.130;2024-01-06T01:26:01;15.90;;;7.90;;
75012;SDS011;63567;49.956;20.130;2024-01-06T01:28:26;13.18;;;7.32;;
75012;SDS011;63567;49.956;20.130;2024-01-06T01:30:52;13.65;;;6.75;;
75012;SDS011;63567;49.956;20.130;2024-01-06T01:33:17;14.57;;;7.23;;
75012;SDS011;63567;49.956;20.130;2024-01-06T01:35:43;14.68;;;7.22;;
75012;SDS011;63567;49.956;20.130;2024-01-06T01:38:08;14.73;;;7.00;;
75012;SDS011;63567;49.956;20.130;2024-01-06T01:40:33;11.93;;;6.60;;
75012;SDS011;63567;49.956;20.130;2024-01-06T01:42:59;12.73;;;6.60;;
75012;SDS011;63567;49.956;20.130;2024-01-06T01:45:24;15.93;;;7.30;;
75012;SDS011;63567;49.956;20.130;2024-01-06T01:47:49;12.63;;;7.30;;
75012;SDS011;63567;49.956;20.130;2024-01-06T01:50:15;14.75;;;6.75;;
75012;SDS011;63567;49.956;20.130;2024-01-06T01:52:41;11.43;;;6.10;;
75012;SDS011;63567;49.956;20.130;2024-01-06T01:55:07;11.68;;;7.07;;
75012;SDS011;63567;49.956;20.130;2024-01-06T01:57:33;12.57;;;6.88;;
75012;SDS011;63567;49.956;20.130;2024-01-06T01:59:58;13.82;;;6.68;;
75012;SDS011;63567;49.956;20.130;2024-01-06T02:02:26;11.90;;;6.20;;
75012;SDS011;63567;49.956;20.130;2024-01-06T02:04:51;13.35;;;6.60;;
75012;SDS011;63567;49.956;20.130;2024-01-06T02:07:17;10.83;;;6.03;;
75012;SDS011;63567;49.956;20.130;2024-01-06T02:09:42;13.13;;;6.27;;
75012;SDS011;63567;49.956;20.130;2024-01-06T02:12:07;12.80;;;6.15;;
75012;SDS011;63567;49.956;20.130;2024-01-06T02:14:33;13.53;;;6.23;;
75012;SDS011;63567;49.956;20.130;2024-01-06T02:16:58;11.57;;;5.47;;
75012;SDS011;63567;49.956;20.130;2024-01-06T02:19:23;10.85;;;5.15;;
75012;SDS011;63567;49.956;20.130;2024-01-06T02:21:52;12.05;;;5.53;;
75012;SDS011;63567;49.956;20.130;2024-01-06T02:24:18;9.60;;;4.82;;
75012;SDS011;63567;49.956;20.130;2024-01-06T02:26:43;11.20;;;4.63;;
75012;SDS011;63567;49.956;20.130;2024-01-06T02:29:09;9.37;;;5.23;;
75012;SDS011;63567;49.956;20.130;2024-01-06T02:31:34;10.50;;;5.27;;
75012;SDS011;63567;49.956;20.130;2024-01-06T02:33:59;9.40;;;4.63;;
75012;SDS011;63567;49.956;20.130;2024-01-06T02:36:25;11.13;;;5.70;;
75012;SDS011;63567;49.956;20.130;2024-01-06T02:38:50;11.70;;;6.27;;
75012;SDS011;63567;49.956;20.130;2024-01-06T02:41:15;8.37;;;4.87;;
75012;SDS011;63567;49.956;20.130;2024-01-06T02:43:40;12.07;;;6.17;;
75012;SDS011;63567;49.956;20.130;2024-01-06T02:46:06;21.00;;;9.53;;
75012;SDS011;63567;49.956;20.130;2024-01-06T02:48:32;22.98;;;10.88;;
75012;SDS011;63567;49.956;20.130;2024-01-06T02:50:57;20.53;;;10.73;;
75012;SDS011;63567;49.956;20.130;2024-01-06T02:53:22;23.97;;;11.53;;
75012;SDS011;63567;49.956;20.130;2024-01-06T02:55:47;19.73;;;11.13;;
75012;SDS011;63567;49.956;20.130;2024-01-06T02:58:13;26.83;;;12.80;;
75012;SDS011;63567;49.956;20.130;2024-01-06T03:00:38;32.10;;;14.43;;
75012;SDS011;63567;49.956;20.130;2024-01-06T03:03:03;30.30;;;14.87;;
75012;SDS011;63567;49.956;20.130;2024-01-06T03:05:29;33.17;;;15.60;;
75012;SDS011;63567;49.956;20.130;2024-01-06T03:07:54;31.03;;;17.00;;
75012;SDS011;63567;49.956;20.130;2024-01-06T03:10:19;33.00;;;16.37;;
75012;SDS011;63567;49.956;20.130;2024-01-06T03:12:45;35.60;;;16.47;;
75012;SDS011;63567;49.956;20.130;2024-01-06T03:15:10;35.47;;;16.30;;
75012;SDS011;63567;49.956;20.130;2024-01-06T03:17:36;35.38;;;17.23;;
75012;SDS011;63567;49.956;20.130;2024-01-06T03:20:01;35.90;;;17.17;;
75012;SDS011;63567;49.956;20.130;2024-01-06T03:22:27;36.00;;;16.87;;
75012;SDS011;63567;49.956;20.130;2024-01-06T03:24:52;34.23;;;16.43;;
75012;SDS011;63567;49.956;20.130;2024-01-06T03:27:17;34.97;;;14.80;;
75012;SDS011;63567;49.956;20.130;2024-01-06T03:29:42;36.37;;;16.03;;
75012;SDS011;63567;49.956;20.130;2024-01-06T03:32:08;31.53;;;14.73;;
75012;SDS011;63567;49.956;20.130;2024-01-06T03:34:33;34.63;;;16.13;;
75012;SDS011;63567;49.956;20.130;2024-01-06T03:36:58;32.00;;;14.47;;
75012;SDS011;63567;49.956;20.130;2024-01-06T03:39:23;37.23;;;16.30;;
75012;SDS011;63567;49.956;20.130;2024-01-06T03:41:49;30.50;;;15.27;;
75012;SDS011;63567;49.956;20.130;2024-01-06T03:44:14;33.90;;;15.35;;
75012;SDS011;63567;49.956;20.130;2024-01-06T03:46:39;33.92;;;15.57;;
75012;SDS011;63567;49.956;20.130;2024-01-06T03:49:05;32.77;;;14.90;;
75012;SDS011;63567;49.956;20.130;2024-01-06T03:51:30;31.17;;;14.60;;
75012;SDS011;63567;49.956;20.130;2024-01-06T03:53:55;33.03;;;15.27;;
75012;SDS011;63567;49.956;20.130;2024-01-06T03:56:21;27.67;;;14.43;;
75012;SDS011;63567;49.956;20.130;2024-01-06T03:58:46;27.07;;;13.93;;
75012;SDS011;63567;49.956;20.130;2024-01-06T04:01:11;26.67;;;12.57;;
75012;SDS011;63567;49.956;20.130;2024-01-06T04:03:37;26.53;;;12.57;;
75012;SDS011;63567;49.956;20.130;2024-01-06T04:06:05;25.58;;;11.60;;
75012;SDS011;63567;49.956;20.130;2024-01-06T04:08:30;26.55;;;12.27;;
75012;SDS011;63567;49.956;20.130;2024-01-06T04:10:55;24.20;;;11.50;;
75012;SDS011;63567;49.956;20.130;2024-01-06T04:13:21;21.70;;;11.17;;
75012;SDS011;63567;49.956;20.130;2024-01-06T04:15:46;23.43;;;10.83;;
75012;SDS011;63567;49.956;20.130;2024-01-06T04:18:11;22.43;;;10.33;;
75012;SDS011;63567;49.956;20.130;2024-01-06T04:20:36;19.60;;;9.83;;
75012;SDS011;63567;49.956;20.130;2024-01-06T04:23:02;20.50;;;10.17;;
75012;SDS011;63567;49.956;20.130;2024-01-06T04:25:27;22.23;;;10.53;;
75012;SDS011;63567;49.956;20.130;2024-01-06T04:27:52;21.37;;;10.67;;
75012;SDS011;63567;49.956;20.130;2024-01-06T04:30:18;20.13;;;10.60;;
75012;SDS011;63567;49.956;20.130;2024-01-06T04:32:44;20.95;;;10.40;;
75012;SDS011;63567;49.956;20.130;2024-01-06T04:35:09;20.67;;;10.20;;
75012;SDS011;63567;49.956;20.130;2024-01-06T04:37:35;17.88;;;9.95;;
75012;SDS011;63567;49.956;20.130;2024-01-06T04:40:00;20.13;;;10.97;;
75012;SDS011;63567;49.956;20.130;2024-01-06T04:42:26;19.42;;;10.20;;
75012;SDS011;63567;49.956;20.130;2024-01-06T04:44:51;19.10;;;9.53;;
75012;SDS011;63567;49.956;20.130;2024-01-06T04:47:16;19.53;;;9.73;;
75012;SDS011;63567;49.956;20.130;2024-01-06T04:49:42;21.48;;;10.45;;
75012;SDS011;63567;49.956;20.130;2024-01-06T04:52:08;20.73;;;9.80;;
75012;SDS011;63567;49.956;20.130;2024-01-06T04:54:33;21.50;;;10.50;;
75012;SDS011;63567;49.956;20.130;2024-01-06T04:56:58;21.93;;;11.07;;
75012;SDS011;63567;49.956;20.130;2024-01-06T04:59:24;25.27;;;13.05;;
75012;SDS011;63567;49.956;20.130;2024-01-06T05:01:50;32.13;;;15.33;;
75012;SDS011;63567;49.956;20.130;2024-01-06T05:04:16;31.55;;;14.57;;
75012;SDS011;63567;49.956;20.130;2024-01-06T05:06:42;32.58;;;15.02;;
75012;SDS011;63567;49.956;20.130;2024-01-06T05:09:07;29.27;;;14.77;;
75012;SDS011;63567;49.956;20.130;2024-01-06T05:11:32;28.80;;;14.90;;
75012;SDS011;63567;49.956;20.130;2024-01-06T05:13:57;31.47;;;14.70;;
75012;SDS011;63567;49.956;20.130;2024-01-06T05:16:23;29.63;;;14.73;;
75012;SDS011;63567;49.956;20.130;2024-01-06T05:18:48;30.73;;;14.87;;
75012;SDS011;63567;49.956;20.130;2024-01-06T05:21:13;25.73;;;13.93;;
75012;SDS011;63567;49.956;20.130;2024-01-06T05:23:38;32.37;;;15.20;;
75012;SDS011;63567;49.956;20.130;2024-01-06T05:26:04;27.77;;;13.73;;
75012;SDS011;63567;49.956;20.130;2024-01-06T05:28:30;30.45;;;14.98;;
75012;SDS011;63567;49.956;20.130;2024-01-06T05:30:55;29.67;;;14.77;;
75012;SDS011;63567;49.956;20.130;2024-01-06T05:33:21;28.10;;;12.80;;
75012;SDS011;63567;49.956;20.130;2024-01-06T05:35:46;25.17;;;12.47;;
75012;SDS011;63567;49.956;20.130;2024-01-06T05:38:11;27.90;;;12.83;;
75012;SDS011;63567;49.956;20.130;2024-01-06T05:40:36;27.60;;;14.60;;
75012;SDS011;63567;49.956;20.130;2024-01-06T05:43:02;24.50;;;12.77;;
75012;SDS011;63567;49.956;20.130;2024-01-06T05:45:27;24.88;;;12.35;;
75012;SDS011;63567;49.956;20.130;2024-01-06T05:47:53;28.13;;;13.65;;
75012;SDS011;63567;49.956;20.130;2024-01-06T05:50:18;26.70;;;12.80;;
75012;SDS011;63567;49.956;20.130;2024-01-06T05:52:43;30.17;;;13.73;;
75012;SDS011;63567;49.956;20.130;2024-01-06T05:55:09;27.77;;;13.37;;
75012;SDS011;63567;49.956;20.130;2024-01-06T05:57:34;28.52;;;13.85;;
75012;SDS011;63567;49.956;20.130;2024-01-06T06:00:00;29.98;;;13.82;;
75012;SDS011;63567;49.956;20.130;2024-01-06T06:02:25;30.80;;;16.07;;
75012;SDS011;63567;49.956;20.130;2024-01-06T06:04:51;35.75;;;16.70;;
75012;SDS011;63567;49.956;20.130;2024-01-06T06:07:17;32.42;;;15.63;;
75012;SDS011;63567;49.956;20.130;2024-01-06T06:09:42;33.47;;;15.37;;
75012;SDS011;63567;49.956;20.130;2024-01-06T06:12:07;35.13;;;15.87;;
75012;SDS011;63567;49.956;20.130;2024-01-06T06:14:33;31.88;;;16.02;;
75012;SDS011;63567;49.956;20.130;2024-01-06T06:16:58;34.93;;;16.00;;
75012;SDS011;63567;49.956;20.130;2024-01-06T06:19:23;35.60;;;16.10;;
75012;SDS011;63567;49.956;20.130;2024-01-06T06:21:48;37.50;;;17.63;;
75012;SDS011;63567;49.956;20.130;2024-01-06T06:24:14;33.93;;;16.10;;
75012;SDS011;63567;49.956;20.130;2024-01-06T06:26:39;36.50;;;16.80;;
75012;SDS011;63567;49.956;20.130;2024-01-06T06:29:04;34.57;;;16.03;;
75012;SDS011;63567;49.956;20.130;2024-01-06T06:31:29;33.97;;;16.43;;
75012;SDS011;63567;49.956;20.130;2024-01-06T06:33:55;31.43;;;16.10;;
75012;SDS011;63567;49.956;20.130;2024-01-06T06:36:20;29.80;;;15.60;;
75012;SDS011;63567;49.956;20.130;2024-01-06T06:38:45;30.17;;;16.03;;
75012;SDS011;63567;49.956;20.130;2024-01-06T06:41:11;32.95;;;16.48;;
75012;SDS011;63567;49.956;20.130;2024-01-06T06:43:36;31.80;;;16.33;;
75012;SDS011;63567;49.956;20.130;2024-01-06T06:46:01;34.13;;;16.57;;
75012;SDS011;63567;49.956;20.130;2024-01-06T06:48:27;34.13;;;16.30;;
75012;SDS011;63567;49.956;20.130;2024-01-06T06:50:52;32.30;;;15.35;;
75012;SDS011;63567;49.956;20.130;2024-01-06T06:53:18;29.40;;;14.20;;
75012;SDS011;63567;49.956;20.130;2024-01-06T06:55:43;27.00;;;14.37;;
75012;SDS011;63567;49.956;20.130;2024-01-06T06:58:08;25.70;;;13.00;;
75012;SDS011;63567;49.956;20.130;2024-01-06T07:00:34;24.13;;;12.50;;
75012;SDS011;63567;49.956;20.130;2024-01-06T07:03:00;20.50;;;10.23;;
75012;SDS011;63567;49.956;20.130;2024-01-06T07:05:25;17.35;;;9.82;;
75012;SDS011;63567;49.956;20.130;2024-01-06T07:07:50;16.33;;;8.90;;
75012;SDS011;63567;49.956;20.130;2024-01-06T07:10:15;19.53;;;9.57;;
75012;SDS011;63567;49.956;20.130;2024-01-06T07:12:41;21.57;;;9.80;;
75012;SDS011;63567;49.956;20.130;2024-01-06T07:15:06;20.07;;;9.60;;
75012;SDS011;63567;49.956;20.130;2024-01-06T07:17:33;24.02;;;11.43;;
75012;SDS011;63567;49.956;20.130;2024-01-06T07:19:59;21.47;;;11.27;;
75012;SDS011;63567;49.956;20.130;2024-01-06T07:22:24;21.70;;;10.80;;
75012;SDS011;63567;49.956;20.130;2024-01-06T07:24:49;19.27;;;11.03;;
75012;SDS011;63567;49.956;20.130;2024-01-06T07:27:14;17.00;;;9.57;;
75012;SDS011;63567;49.956;20.130;2024-01-06T07:29:40;15.43;;;8.50;;
75012;SDS011;63567;49.956;20.130;2024-01-06T07:32:05;14.80;;;7.53;;
75012;SDS011;63567;49.956;20.130;2024-01-06T07:34:33;15.68;;;7.28;;
75012;SDS011;63567;49.956;20.130;2024-01-06T07:36:59;12.52;;;6.28;;
75012;SDS011;63567;49.956;20.130;2024-01-06T07:39:24;11.18;;;6.47;;
75012;SDS011;63567;49.956;20.130;2024-01-06T07:41:50;10.43;;;5.33;;
75012;SDS011;63567;49.956;20.130;2024-01-06T07:44:15;11.35;;;6.53;;
75012;SDS011;63567;49.956;20.130;2024-01-06T07:46:41;13.27;;;6.80;;
75012;SDS011;63567;49.956;20.130;2024-01-06T07:49:07;18.33;;;8.95;;
75012;SDS011;63567;49.956;20.130;2024-01-06T07:51:32;26.90;;;13.50;;
75012;SDS011;63567;49.956;20.130;2024-01-06T07:53:59;32.15;;;15.68;;
75012;SDS011;63567;49.956;20.130;2024-01-06T07:56:25;33.38;;;17.27;;
75012;SDS011;63567;49.956;20.130;2024-01-06T07:58:50;30.63;;;16.67;;
75012;SDS011;63567;49.956;20.130;2024-01-06T08:01:15;31.33;;;17.37;;
75012;SDS011;63567;49.956;20.130;2024-01-06T08:03:41;32.17;;;16.92;;
75012;SDS011;63567;49.956;20.130;2024-01-06T08:06:06;31.77;;;16.60;;
75012;SDS011;63567;49.956;20.130;2024-01-06T08:08:31;32.60;;;16.27;;
75012;SDS011;63567;49.956;20.130;2024-01-06T08:10:57;32.40;;;17.27;;
75012;SDS011;63567;49.956;20.130;2024-01-06T08:13:22;28.33;;;15.73;;
75012;SDS011;63567;49.956;20.130;2024-01-06T08:15:47;27.63;;;14.77;;
75012;SDS011;63567;49.956;20.130;2024-01-06T08:18:13;29.42;;;15.23;;
75012;SDS011;63567;49.956;20.130;2024-01-06T08:20:38;30.73;;;15.32;;
75012;SDS011;63567;49.956;20.130;2024-01-06T08:23:03;31.90;;;15.77;;
75012;SDS011;63567;49.956;20.130;2024-01-06T08:25:29;33.90;;;18.27;;
75012;SDS011;63567;49.956;20.130;2024-01-06T08:27:54;34.20;;;17.87;;
75012;SDS011;63567;49.956;20.130;2024-01-06T08:30:19;37.67;;;19.13;;
75012;SDS011;63567;49.956;20.130;2024-01-06T08:32:45;37.20;;;20.20;;
75012;SDS011;63567;49.956;20.130;2024-01-06T08:35:10;41.93;;;21.00;;
75012;SDS011;63567;49.956;20.130;2024-01-06T08:37:35;37.50;;;19.90;;
75012;SDS011;63567;49.956;20.130;2024-01-06T08:40:01;39.60;;;19.87;;
75012;SDS011;63567;49.956;20.130;2024-01-06T08:42:28;41.53;;;20.63;;
75012;SDS011;63567;49.956;20.130;2024-01-06T08:44:53;38.63;;;20.35;;
75012;SDS011;63567;49.956;20.130;2024-01-06T08:47:18;38.17;;;18.93;;
75012;SDS011;63567;49.956;20.130;2024-01-06T08:49:44;40.33;;;20.23;;
75012;SDS011;63567;49.956;20.130;2024-01-06T08:52:09;42.50;;;20.73;;
75012;SDS011;63567;49.956;20.130;2024-01-06T08:54:34;46.07;;;21.30;;
75012;SDS011;63567;49.956;20.130;2024-01-06T08:57:00;42.47;;;19.98;;
75012;SDS011;63567;49.956;20.130;2024-01-06T08:59:25;40.10;;;20.43;;
75012;SDS011;63567;49.956;20.130;2024-01-06T09:01:51;43.40;;;22.20;;
75012;SDS011;63567;49.956;20.130;2024-01-06T09:04:17;40.67;;;20.73;;
75012;SDS011;63567;49.956;20.130;2024-01-06T09:06:42;39.67;;;20.25;;
75012;SDS011;63567;49.956;20.130;2024-01-06T09:09:07;38.17;;;19.43;;
75012;SDS011;63567;49.956;20.130;2024-01-06T09:11:34;37.90;;;19.33;;
75012;SDS011;63567;49.956;20.130;2024-01-06T09:14:00;37.42;;;18.42;;
75012;SDS011;63567;49.956;20.130;2024-01-06T09:16:25;36.93;;;19.83;;
75012;SDS011;63567;49.956;20.130;2024-01-06T09:18:51;39.00;;;19.50;;
75012;SDS011;63567;49.956;20.130;2024-01-06T09:21:16;38.40;;;19.50;;
75012;SDS011;63567;49.956;20.130;2024-01-06T09:23:42;37.28;;;18.98;;
75012;SDS011;63567;49.956;20.130;2024-01-06T09:26:07;34.53;;;19.13;;
75012;SDS011;63567;49.956;20.130;2024-01-06T09:28:33;32.03;;;18.07;;
75012;SDS011;63567;49.956;20.130;2024-01-06T09:30:58;31.40;;;16.43;;
75012;SDS011;63567;49.956;20.130;2024-01-06T09:33:23;31.87;;;16.27;;
75012;SDS011;63567;49.956;20.130;2024-01-06T09:35:49;33.77;;;17.03;;
75012;SDS011;63567;49.956;20.130;2024-01-06T09:38:14;33.40;;;16.37;;
75012;SDS011;63567;49.956;20.130;2024-01-06T09:40:42;31.90;;;16.67;;
75012;SDS011;63567;49.956;20.130;2024-01-06T09:43:09;33.15;;;17.17;;
75012;SDS011;63567;49.956;20.130;2024-01-06T09:45:36;31.75;;;15.05;;
75012;SDS011;63567;49.956;20.130;2024-01-06T09:48:03;27.30;;;14.53;;
75012;SDS011;63567;49.956;20.130;2024-01-06T09:50:37;25.50;;;13.07;;
75012;SDS011;63567;49.956;20.130;2024-01-06T09:53:06;29.25;;;14.30;;
75012;SDS011;63567;49.956;20.130;2024-01-06T09:55:34;27.60;;;14.98;;
75012;SDS011;63567;49.956;20.130;2024-01-06T09:58:00;28.70;;;14.43;;
75012;SDS011;63567;49.956;20.130;2024-01-06T10:00:26;29.50;;;14.68;;
75012;SDS011;63567;49.956;20.130;2024-01-06T10:02:51;26.83;;;14.77;;
75012;SDS011;63567;49.956;20.130;2024-01-06T10:05:17;27.93;;;14.17;;
75012;SDS011;63567;49.956;20.130;2024-01-06T10:07:43;25.77;;;13.63;;
75012;SDS011;63567;49.956;20.130;2024-01-06T10:10:09;28.45;;;14.27;;
75012;SDS011;63567;49.956;20.130;2024-01-06T10:12:37;24.65;;;13.43;;
75012;SDS011;63567;49.956;20.130;2024-01-06T10:15:04;29.42;;;13.90;;
75012;SDS011;63567;49.956;20.130;2024-01-06T10:17:31;26.38;;;14.38;;
75012;SDS011;63567;49.956;20.130;2024-01-06T10:19:56;23.33;;;14.00;;
75012;SDS011;63567;49.956;20.130;2024-01-06T10:22:21;28.37;;;15.87;;
75012;SDS011;63567;49.956;20.130;2024-01-06T10:24:47;28.57;;;14.37;;
75012;SDS011;63567;49.956;20.130;2024-01-06T10:27:12;29.23;;;15.87;;
75012;SDS011;63567;49.956;20.130;2024-01-06T10:29:38;30.02;;;14.77;;
75012;SDS011;63567;49.956;20.130;2024-01-06T10:32:03;27.27;;;14.10;;
75012;SDS011;63567;49.956;20.130;2024-01-06T10:34:29;27.33;;;15.18;;
75012;SDS011;63567;49.956;20.130;2024-01-06T10:36:57;28.90;;;14.27;;
75012;SDS011;63567;49.956;20.130;2024-01-06T10:39:22;30.05;;;14.88;;
75012;SDS011;63567;49.956;20.130;2024-01-06T10:41:48;27.93;;;14.40;;
75012;SDS011;63567;49.956;20.130;2024-01-06T10:44:14;28.35;;;14.32;;
75012;SDS011;63567;49.956;20.130;2024-01-06T10:46:40;26.75;;;13.65;;
75012;SDS011;63567;49.956;20.130;2024-01-06T10:49:06;26.33;;;14.30;;
75012;SDS011;63567;49.956;20.130;2024-01-06T10:51:36;25.75;;;14.32;;
75012;SDS011;63567;49.956;20.130;2024-01-06T10:54:02;26.48;;;12.38;;
75012;SDS011;63567;49.956;20.130;2024-01-06T10:56:29;25.20;;;13.07;;
75012;SDS011;63567;49.956;20.130;2024-01-06T10:58:54;24.73;;;12.85;;
75012;SDS011;63567;49.956;20.130;2024-01-06T11:01:22;23.10;;;12.70;;
75012;SDS011;63567;49.956;20.130;2024-01-06T11:03:52;22.42;;;12.00;;
75012;SDS011;63567;49.956;20.130;2024-01-06T11:06:19;25.88;;;13.05;;
75012;SDS011;63567;49.956;20.130;2024-01-06T11:11:41;22.90;;;11.77;;
75012;SDS011;63567;49.956;20.130;2024-01-06T11:14:23;25.38;;;13.05;;
75012;SDS011;63567;49.956;20.130;2024-01-06T11:16:50;25.85;;;13.23;;
75012;SDS011;63567;49.956;20.130;2024-01-06T11:24:53;23.17;;;12.98;;
75012;SDS011;63567;49.956;20.130;2024-01-06T11:27:24;25.58;;;13.13;;
75012;SDS011;63567;49.956;20.130;2024-01-06T11:29:54;26.08;;;13.00;;
75012;SDS011;63567;49.956;20.130;2024-01-06T11:32:27;23.25;;;12.13;;
75012;SDS011;63567;49.956;20.130;2024-01-06T11:34:54;22.45;;;12.23;;
75012;SDS011;63567;49.956;20.130;2024-01-06T11:40:03;24.48;;;12.00;;
75012;SDS011;63567;49.956;20.130;2024-01-06T11:42:33;24.20;;;13.07;;
75012;SDS011;63567;49.956;20.130;2024-01-06T11:45:02;22.27;;;11.70;;
75012;SDS011;63567;49.956;20.130;2024-01-06T11:47:30;23.00;;;12.07;;
75012;SDS011;63567;49.956;20.130;2024-01-06T11:49:56;21.40;;;11.93;;
75012;SDS011;63567;49.956;20.130;2024-01-06T11:52:24;21.08;;;11.25;;
75012;SDS011;63567;49.956;20.130;2024-01-06T11:54:50;20.40;;;12.27;;
75012;SDS011;63567;49.956;20.130;2024-01-06T11:57:17;21.52;;;11.48;;
75012;SDS011;63567;49.956;20.130;2024-01-06T11:59:42;21.27;;;12.07;;
75012;SDS011;63567;49.956;20.130;2024-01-06T12:02:10;21.47;;;11.17;;
75012;SDS011;63567;49.956;20.130;2024-01-06T12:04:37;19.27;;;10.65;;
75012;SDS011;63567;49.956;20.130;2024-01-06T12:07:08;21.23;;;11.27;;
75012;SDS011;63567;49.956;20.130;2024-01-06T12:09:34;19.30;;;11.30;;
75012;SDS011;63567;49.956;20.130;2024-01-06T12:12:03;22.42;;;11.68;;
75012;SDS011;63567;49.956;20.130;2024-01-06T12:14:32;22.98;;;11.65;;
75012;SDS011;63567;49.956;20.130;2024-01-06T12:16:58;20.58;;;11.48;;
75012;SDS011;63567;49.956;20.130;2024-01-06T12:19:28;21.52;;;11.05;;
75012;SDS011;63567;49.956;20.130;2024-01-06T12:21:57;18.05;;;10.52;;
75012;SDS011;63567;49.956;20.130;2024-01-06T12:24:23;20.60;;;11.35;;
75012;SDS011;63567;49.956;20.130;2024-01-06T12:26:48;20.73;;;12.33;;
75012;SDS011;63567;49.956;20.130;2024-01-06T12:29:14;19.05;;;11.52;;
75012;SDS011;63567;49.956;20.130;2024-01-06T12:31:39;20.98;;;11.68;;
75012;SDS011;63567;49.956;20.130;2024-01-06T12:34:06;21.00;;;11.60;;
75012;SDS011;63567;49.956;20.130;2024-01-06T12:36:33;21.55;;;11.27;;
75012;SDS011;63567;49.956;20.130;2024-01-06T12:38:59;20.02;;;11.75;;
75012;SDS011;63567;49.956;20.130;2024-01-06T12:41:27;21.65;;;11.88;;
75012;SDS011;63567;49.956;20.130;2024-01-06T12:43:53;24.17;;;13.30;;
75012;SDS011;63567;49.956;20.130;2024-01-06T12:46:18;24.33;;;12.23;;
75012;SDS011;63567;49.956;20.130;2024-01-06T12:48:43;22.45;;;12.68;;
75012;SDS011;63567;49.956;20.130;2024-01-06T12:51:08;25.57;;;13.03;;
75012;SDS011;63567;49.956;20.130;2024-01-06T12:53:34;23.90;;;12.63;;
75012;SDS011;63567;49.956;20.130;2024-01-06T12:55:59;22.17;;;12.50;;
75012;SDS011;63567;49.956;20.130;2024-01-06T12:58:25;23.03;;;13.00;;
75012;SDS011;63567;49.956;20.130;2024-01-06T13:00:50;22.20;;;12.30;;
75012;SDS011;63567;49.956;20.130;2024-01-06T13:03:15;23.63;;;12.40;;
75012;SDS011;63567;49.956;20.130;2024-01-06T13:05:41;22.90;;;13.15;;
75012;SDS011;63567;49.956;20.130;2024-01-06T13:08:06;21.23;;;12.67;;
75012;SDS011;63567;49.956;20.130;2024-01-06T13:10:32;20.53;;;11.93;;
75012;SDS011;63567;49.956;20.130;2024-01-06T13:12:59;18.45;;;11.73;;
75012;SDS011;63567;49.956;20.130;2024-01-06T13:15:24;21.63;;;12.95;;
75012;SDS011;63567;49.956;20.130;2024-01-06T13:17:50;20.83;;;11.37;;
75012;SDS011;63567;49.956;20.130;2024-01-06T13:20:16;21.58;;;11.57;;
75012;SDS011;63567;49.956;20.130;2024-01-06T13:22:41;20.13;;;12.57;;
75012;SDS011;63567;49.956;20.130;2024-01-06T13:25:07;22.03;;;11.70;;
75012;SDS011;63567;49.956;20.130;2024-01-06T13:27:33;20.80;;;12.00;;
75012;SDS011;63567;49.956;20.130;2024-01-06T13:29:59;19.15;;;10.68;;
75012;SDS011;63567;49.956;20.130;2024-01-06T13:32:24;19.43;;;9.80;;
75012;SDS011;63567;49.956;20.130;2024-01-06T13:34:51;16.83;;;10.00;;
75012;SDS011;63567;49.956;20.130;2024-01-06T13:37:19;18.27;;;9.70;;
75012;SDS011;63567;49.956;20.130;2024-01-06T13:39:45;17.40;;;9.80;;
75012;SDS011;63567;49.956;20.130;2024-01-06T13:42:10;17.83;;;9.33;;
75012;SDS011;63567;49.956;20.130;2024-01-06T13:44:35;18.07;;;10.10;;
75012;SDS011;63567;49.956;20.130;2024-01-06T13:47:00;17.67;;;9.73;;
75012;SDS011;63567;49.956;20.130;2024-01-06T13:49:26;19.43;;;9.33;;
75012;SDS011;63567;49.956;20.130;2024-01-06T13:51:51;17.90;;;10.40;;
75012;SDS011;63567;49.956;20.130;2024-01-06T13:54:16;20.83;;;10.53;;
75012;SDS011;63567;49.956;20.130;2024-01-06T13:56:42;17.80;;;9.90;;
75012;SDS011;63567;49.956;20.130;2024-01-06T13:59:07;14.80;;;9.10;;
75012;SDS011;63567;49.956;20.130;2024-01-06T14:01:33;17.13;;;9.80;;
75012;SDS011;63567;49.956;20.130;2024-01-06T14:03:58;17.65;;;10.02;;
75012;SDS011;63567;49.956;20.130;2024-01-06T14:06:24;18.45;;;9.55;;
75012;SDS011;63567;49.956;20.130;2024-01-06T14:08:50;18.27;;;9.20;;
75012;SDS011;63567;49.956;20.130;2024-01-06T14:11:17;18.88;;;9.82;;
75012;SDS011;63567;49.956;20.130;2024-01-06T14:13:43;18.05;;;9.98;;